Time;durP1;ratioP1;P1;durP2;ratioP2;P2;SDS_P1;SDS_P2;PMS_P1;PMS_P2;Temp;Humidity;BMP_temperature;BMP_pressure;BME280_temperature;BME280_humidity;BME280_pressure;Samples;Min_cycle;Max_cycle;Signal;HPM_P1;HPM_P2
2021/12/12 00:00:14;;;;;;;166.18;71.65;;;;;;;;;;5005124;28;20049;-62
2021/12/12 00:03:01;;;;;;;174.05;72.82;;;;;;;;;;4997528;28;20305;-63
2021/12/12 00:05:32;;;;;;;145.68;64.40;;;;;;;;;;5004398;28;20049;-62
2021/12/12 00:07:59;;;;;;;152.45;66.90;;;;;;;;;;5005569;28;20046;-63
2021/12/12 00:10:27;;;;;;;143.30;60.65;;;;;;;;;;4989912;28;20042;-62
2021/12/12 00:12:56;;;;;;;148.98;70.40;;;;;;;;;;5006833;28;20637;-61
2021/12/12 00:15:22;;;;;;;150.05;64.72;;;;;;;;;;5006662;28;20484;-60
2021/12/12 00:17:48;;;;;;;129.52;62.38;;;;;;;;;;5007074;28;20453;-61
2021/12/12 00:20:15;;;;;;;146.30;66.60;;;;;;;;;;5007010;28;20048;-61
2021/12/12 00:22:42;;;;;;;149.50;69.32;;;;;;;;;;5006932;28;20514;-62
2021/12/12 00:25:08;;;;;;;136.63;62.08;;;;;;;;;;5004666;28;20046;-62
2021/12/12 00:27:35;;;;;;;142.15;67.15;;;;;;;;;;5004471;28;20053;-62
2021/12/12 00:30:02;;;;;;;160.82;71.65;;;;;;;;;;5005941;28;20038;-63
2021/12/12 00:32:29;;;;;;;130.55;61.65;;;;;;;;;;5005282;28;20507;-62
2021/12/12 00:34:59;;;;;;;133.40;62.47;;;;;;;;;;5021061;28;20042;-62
2021/12/12 00:37:25;;;;;;;144.05;65.28;;;;;;;;;;5005281;28;20046;-62
2021/12/12 00:39:53;;;;;;;138.02;67.45;;;;;;;;;;5006212;28;20113;-61
2021/12/12 00:42:20;;;;;;;150.90;71.38;;;;;;;;;;5007561;28;20369;-61
2021/12/12 00:44:49;;;;;;;143.77;68.82;;;;;;;;;;5007198;28;20045;-62
2021/12/12 00:47:17;;;;;;;155.23;72.55;;;;;;;;;;5010742;28;20077;-61
2021/12/12 00:49:44;;;;;;;145.13;68.25;;;;;;;;;;5009184;28;20117;-62
2021/12/12 00:52:11;;;;;;;139.43;68.72;;;;;;;;;;5011047;28;20064;-62
2021/12/12 00:54:38;;;;;;;140.68;69.93;;;;;;;;;;5025959;28;20415;-62
2021/12/12 00:57:07;;;;;;;145.70;70.07;;;;;;;;;;5008940;28;20052;-62
2021/12/12 00:59:34;;;;;;;139.80;69.05;;;;;;;;;;5009535;28;20459;-61
2021/12/12 01:02:00;;;;;;;139.10;69.03;;;;;;;;;;5011305;28;20056;-62
2021/12/12 01:04:32;;;;;;;125.15;60.40;;;;;;;;;;5010701;28;20042;-62
2021/12/12 01:06:59;;;;;;;150.88;75.80;;;;;;;;;;5007929;28;20053;-62
2021/12/12 01:09:31;;;;;;;134.75;68.57;;;;;;;;;;5008409;28;20077;-63
2021/12/12 01:11:58;;;;;;;129.25;64.68;;;;;;;;;;5005595;28;20068;-62
2021/12/12 01:14:31;;;;;;;134.73;67.43;;;;;;;;;;5008205;28;20050;-62
2021/12/12 01:17:00;;;;;;;136.80;66.53;;;;;;;;;;5007841;28;20038;-62
2021/12/12 01:19:29;;;;;;;119.88;60.70;;;;;;;;;;5007371;28;20033;-62
2021/12/12 01:21:58;;;;;;;141.73;70.75;;;;;;;;;;5007804;28;20461;-63
2021/12/12 01:24:45;;;;;;;122.25;65.45;;;;;;;;;;5007812;28;20045;-63
2021/12/12 01:27:12;;;;;;;122.60;63.35;;;;;;;;;;5005410;28;20551;-62
2021/12/12 01:29:38;;;;;;;105.72;57.63;;;;;;;;;;5025332;28;20121;-61
2021/12/12 01:32:09;;;;;;;126.00;69.22;;;;;;;;;;5009481;28;20088;-62
2021/12/12 01:34:35;;;;;;;118.53;65.85;;;;;;;;;;5006495;28;20049;-62
2021/12/12 01:37:36;;;;;;;132.80;69.30;;;;;;;;;;5008187;28;20046;-63
2021/12/12 01:40:00;;;;;;;108.97;59.15;;;;;;;;;;5007628;28;20037;-62
2021/12/12 01:42:33;;;;;;;151.63;78.75;;;;;;;;;;5018424;28;20044;-63
2021/12/12 01:45:06;;;;;;;119.72;62.70;;;;;;;;;;5005576;28;20077;-63
2021/12/12 01:47:38;;;;;;;142.18;74.50;;;;;;;;;;5007511;28;20045;-63
2021/12/12 01:50:16;;;;;;;134.85;72.47;;;;;;;;;;5010990;28;20096;-63
2021/12/12 01:52:44;;;;;;;143.15;75.72;;;;;;;;;;5007353;28;20119;-63
2021/12/12 01:55:21;;;;;;;138.13;70.15;;;;;;;;;;5007649;28;20088;-63
2021/12/12 01:57:47;;;;;;;115.57;61.20;;;;;;;;;;5006413;28;20091;-64
2021/12/12 02:00:17;;;;;;;120.50;63.60;;;;;;;;;;5007590;28;20517;-63
2021/12/12 02:02:44;;;;;;;119.45;62.08;;;;;;;;;;5007885;28;20053;-63
2021/12/12 02:05:12;;;;;;;123.22;64.95;;;;;;;;;;5006978;28;20042;-64
2021/12/12 02:07:39;;;;;;;128.15;67.63;;;;;;;;;;4991353;28;20109;-63
2021/12/12 02:10:09;;;;;;;114.00;56.38;;;;;;;;;;5006691;28;20088;-64
2021/12/12 02:12:35;;;;;;;123.30;62.08;;;;;;;;;;5010694;28;20507;-63
2021/12/12 02:15:02;;;;;;;151.73;75.43;;;;;;;;;;5013322;28;20551;-64
2021/12/12 02:17:34;;;;;;;122.97;65.53;;;;;;;;;;5022922;28;20061;-63
2021/12/12 02:20:18;;;;;;;108.23;53.23;;;;;;;;;;5006994;28;20042;-64
2021/12/12 02:36:22;;;;;;;129.75;66.65;;;;;;;;;;5006127;28;20056;-64
2021/12/12 02:38:51;;;;;;;117.22;63.33;;;;;;;;;;5006840;28;20046;-63
2021/12/12 02:41:18;;;;;;;116.78;60.50;;;;;;;;;;5010146;28;20077;-62
2021/12/12 02:43:48;;;;;;;138.57;68.70;;;;;;;;;;5010340;28;20323;-62
2021/12/12 02:46:17;;;;;;;110.80;57.83;;;;;;;;;;5008639;28;20045;-62
2021/12/12 02:48:45;;;;;;;120.07;62.13;;;;;;;;;;5024534;28;20132;-63
2021/12/12 02:51:15;;;;;;;119.70;59.78;;;;;;;;;;5007431;28;20046;-62
2021/12/12 02:54:07;;;;;;;124.45;64.97;;;;;;;;;;5008219;28;20069;-62
2021/12/12 02:56:38;;;;;;;139.55;66.22;;;;;;;;;;5004820;28;20062;-62
2021/12/12 02:59:10;;;;;;;110.85;58.67;;;;;;;;;;5008018;28;20547;-63
2021/12/12 03:01:39;;;;;;;117.03;58.53;;;;;;;;;;4990516;28;20050;-62
2021/12/12 03:04:05;;;;;;;103.28;56.53;;;;;;;;;;5023039;28;20098;-62
2021/12/12 03:06:33;;;;;;;126.75;63.78;;;;;;;;;;5016899;28;20042;-62
2021/12/12 03:09:06;;;;;;;114.60;59.90;;;;;;;;;;5005677;28;20121;-62
2021/12/12 03:11:32;;;;;;;117.85;59.63;;;;;;;;;;5007129;28;20122;-62
2021/12/12 03:13:58;;;;;;;97.88;54.03;;;;;;;;;;5006340;28;20061;-62
2021/12/12 03:16:25;;;;;;;123.47;64.30;;;;;;;;;;4989989;28;20499;-62
2021/12/12 03:18:51;;;;;;;107.65;56.85;;;;;;;;;;5004591;28;20495;-62
2021/12/12 03:21:30;;;;;;;112.82;60.00;;;;;;;;;;5006167;28;20042;-61
2021/12/12 03:23:58;;;;;;;99.40;52.35;;;;;;;;;;5005626;28;20080;-62
2021/12/12 03:26:24;;;;;;;98.45;52.65;;;;;;;;;;5007498;28;20508;-62
2021/12/12 03:28:52;;;;;;;92.95;52.90;;;;;;;;;;5006290;28;20054;-63
2021/12/12 03:31:21;;;;;;;102.47;51.20;;;;;;;;;;5005346;28;20113;-63
2021/12/12 03:33:47;;;;;;;97.50;50.45;;;;;;;;;;5005620;28;20050;-62
2021/12/12 03:36:14;;;;;;;85.65;40.85;;;;;;;;;;5005835;28;20049;-62
2021/12/12 03:38:43;;;;;;;99.85;51.10;;;;;;;;;;5005999;28;20418;-62
2021/12/12 03:41:10;;;;;;;94.80;53.38;;;;;;;;;;5005347;28;20377;-62
2021/12/12 03:43:37;;;;;;;91.80;49.90;;;;;;;;;;5005851;28;20480;-62
2021/12/12 03:46:06;;;;;;;84.65;47.00;;;;;;;;;;5006604;28;20393;-62
2021/12/12 03:48:33;;;;;;;77.18;42.90;;;;;;;;;;5006179;28;20443;-62
2021/12/12 03:51:01;;;;;;;89.38;49.70;;;;;;;;;;5007252;28;20096;-62
2021/12/12 03:53:28;;;;;;;86.63;45.33;;;;;;;;;;5005203;28;20531;-62
2021/12/12 03:55:54;;;;;;;83.05;46.50;;;;;;;;;;5005091;28;20041;-62
2021/12/12 03:58:20;;;;;;;92.13;48.08;;;;;;;;;;5005213;28;20683;-62
2021/12/12 04:00:46;;;;;;;84.47;45.42;;;;;;;;;;5022311;28;20073;-63
2021/12/12 04:03:13;;;;;;;73.60;41.13;;;;;;;;;;5004601;28;20151;-63
2021/12/12 04:05:39;;;;;;;81.07;41.90;;;;;;;;;;5010209;28;20081;-64
2021/12/12 04:08:06;;;;;;;90.50;48.78;;;;;;;;;;4994680;28;20120;-64
2021/12/12 04:10:33;;;;;;;71.30;39.53;;;;;;;;;;5005381;28;20042;-64
2021/12/12 04:12:59;;;;;;;60.80;35.05;;;;;;;;;;5005236;28;20049;-64
2021/12/12 04:15:25;;;;;;;76.90;45.00;;;;;;;;;;5005237;28;20046;-64
2021/12/12 04:17:52;;;;;;;81.15;45.75;;;;;;;;;;5006833;28;20037;-63
2021/12/12 04:20:24;;;;;;;65.18;38.85;;;;;;;;;;5006374;28;20053;-64
2021/12/12 04:22:50;;;;;;;90.28;47.88;;;;;;;;;;5009441;28;20064;-64
2021/12/12 04:25:17;;;;;;;66.25;35.78;;;;;;;;;;4991951;28;20041;-63
2021/12/12 04:27:43;;;;;;;77.75;44.40;;;;;;;;;;5008988;28;20038;-62
2021/12/12 04:30:11;;;;;;;75.85;44.40;;;;;;;;;;5008648;28;20479;-63
2021/12/12 04:32:38;;;;;;;63.40;35.25;;;;;;;;;;5009087;28;20054;-63
2021/12/12 04:35:06;;;;;;;76.57;43.40;;;;;;;;;;5008979;28;20114;-63
2021/12/12 04:37:32;;;;;;;79.85;43.53;;;;;;;;;;5009078;28;20034;-63
2021/12/12 04:39:59;;;;;;;84.78;43.38;;;;;;;;;;5009061;28;20115;-62
2021/12/12 04:42:30;;;;;;;87.00;46.88;;;;;;;;;;5009095;28;20038;-63
2021/12/12 04:45:07;;;;;;;84.13;47.33;;;;;;;;;;5007826;28;20510;-63
2021/12/12 04:50:31;;;;;;;65.47;39.38;;;;;;;;;;5009114;28;20129;-62
2021/12/12 04:53:13;;;;;;;80.38;47.25;;;;;;;;;;4992318;28;20060;-63
2021/12/12 04:55:59;;;;;;;66.57;38.72;;;;;;;;;;5016787;28;20553;-63
2021/12/12 04:58:28;;;;;;;68.00;40.30;;;;;;;;;;5024782;28;20553;-63
2021/12/12 05:00:59;;;;;;;56.80;34.10;;;;;;;;;;5008312;28;20429;-62
2021/12/12 05:03:34;;;;;;;71.22;39.30;;;;;;;;;;5009717;28;20034;-63
2021/12/12 05:06:03;;;;;;;76.50;44.88;;;;;;;;;;4992842;28;20498;-63
2021/12/12 05:08:35;;;;;;;68.50;42.90;;;;;;;;;;5008658;28;20129;-63
2021/12/12 05:11:14;;;;;;;56.63;34.80;;;;;;;;;;5008699;28;20412;-63
2021/12/12 05:13:43;;;;;;;66.45;38.67;;;;;;;;;;5009664;28;20042;-61
2021/12/12 05:16:23;;;;;;;63.95;39.88;;;;;;;;;;5011310;28;20038;-61
2021/12/12 05:18:51;;;;;;;56.38;36.30;;;;;;;;;;5011825;28;20428;-61
2021/12/12 05:21:19;;;;;;;56.17;37.22;;;;;;;;;;5009670;28;20188;-62
2021/12/12 05:23:46;;;;;;;57.38;36.47;;;;;;;;;;5011606;28;20100;-61
2021/12/12 05:26:26;;;;;;;58.88;36.97;;;;;;;;;;5011677;28;20189;-61
2021/12/12 05:29:01;;;;;;;54.22;35.05;;;;;;;;;;5026721;28;20052;-61
2021/12/12 05:31:28;;;;;;;57.47;35.78;;;;;;;;;;5008902;28;20496;-61
2021/12/12 05:33:55;;;;;;;62.13;39.03;;;;;;;;;;5010109;28;20506;-61
2021/12/12 05:36:21;;;;;;;48.53;30.65;;;;;;;;;;5009813;28;20072;-61
2021/12/12 05:38:48;;;;;;;48.33;32.33;;;;;;;;;;5010823;28;20042;-62
2021/12/12 05:41:18;;;;;;;47.70;32.47;;;;;;;;;;5010447;28;20391;-61
2021/12/12 05:43:44;;;;;;;51.25;35.55;;;;;;;;;;5010874;28;20050;-61
2021/12/12 05:46:15;;;;;;;50.55;34.00;;;;;;;;;;5009928;28;20125;-61
2021/12/12 05:48:41;;;;;;;42.35;30.77;;;;;;;;;;5007693;28;20049;-61
2021/12/12 05:51:07;;;;;;;47.42;31.80;;;;;;;;;;5007412;28;20053;-61
2021/12/12 05:53:34;;;;;;;42.67;29.40;;;;;;;;;;5008374;28;20288;-61
2021/12/12 05:56:00;;;;;;;45.67;31.90;;;;;;;;;;5007117;28;20041;-61
2021/12/12 05:58:26;;;;;;;46.65;32.53;;;;;;;;;;5020466;28;20046;-61
2021/12/12 06:00:54;;;;;;;36.63;27.92;;;;;;;;;;5010203;28;20100;-61
2021/12/12 06:03:23;;;;;;;53.30;36.30;;;;;;;;;;5008663;28;20114;-61
2021/12/12 06:05:50;;;;;;;44.53;32.90;;;;;;;;;;5007928;28;20436;-61
2021/12/12 06:08:17;;;;;;;42.17;31.25;;;;;;;;;;5009244;28;20399;-61
2021/12/12 06:10:44;;;;;;;38.80;27.52;;;;;;;;;;5007276;28;20467;-61
2021/12/12 06:13:11;;;;;;;43.25;31.27;;;;;;;;;;5006939;28;20038;-61
2021/12/12 06:15:38;;;;;;;48.20;33.30;;;;;;;;;;5007309;28;20039;-61
2021/12/12 06:18:05;;;;;;;50.50;35.65;;;;;;;;;;5023260;28;20042;-61
2021/12/12 06:20:31;;;;;;;57.95;36.88;;;;;;;;;;5008277;28;20484;-61
2021/12/12 06:22:57;;;;;;;40.47;28.52;;;;;;;;;;5008173;28;20052;-61
2021/12/12 06:25:25;;;;;;;41.40;32.05;;;;;;;;;;5006916;28;20385;-61
2021/12/12 06:27:51;;;;;;;38.00;27.13;;;;;;;;;;5008738;28;20084;-63
2021/12/12 06:30:20;;;;;;;45.55;31.65;;;;;;;;;;5007130;28;20092;-62
2021/12/12 06:32:46;;;;;;;44.40;30.70;;;;;;;;;;5007778;28;20062;-62
2021/12/12 06:35:13;;;;;;;45.90;31.73;;;;;;;;;;5009018;28;21070;-61
2021/12/12 06:37:41;;;;;;;36.67;27.23;;;;;;;;;;5009398;28;20455;-61
2021/12/12 06:40:09;;;;;;;42.40;28.17;;;;;;;;;;5009879;28;20048;-61
2021/12/12 06:42:35;;;;;;;41.58;30.98;;;;;;;;;;5007569;28;20064;-63
2021/12/12 06:45:02;;;;;;;38.17;27.55;;;;;;;;;;5007497;28;20045;-62
2021/12/12 06:47:28;;;;;;;46.10;32.38;;;;;;;;;;5014292;28;20443;-62
2021/12/12 06:49:54;;;;;;;36.20;26.50;;;;;;;;;;5006321;28;20038;-63
2021/12/12 06:52:21;;;;;;;35.80;28.50;;;;;;;;;;5010009;28;20053;-62
2021/12/12 06:54:47;;;;;;;40.63;30.35;;;;;;;;;;5000627;28;20038;-61
2021/12/12 06:57:15;;;;;;;42.15;29.85;;;;;;;;;;5009899;28;20042;-61
2021/12/12 06:59:42;;;;;;;38.17;28.83;;;;;;;;;;5008335;28;20540;-63
2021/12/12 07:02:10;;;;;;;38.50;28.80;;;;;;;;;;5006200;28;20424;-63
2021/12/12 07:04:38;;;;;;;36.72;27.50;;;;;;;;;;5006502;28;20033;-62
2021/12/12 07:07:05;;;;;;;35.78;27.35;;;;;;;;;;5007905;28;20107;-63
2021/12/12 07:09:32;;;;;;;30.63;23.35;;;;;;;;;;5007329;28;20491;-63
2021/12/12 07:12:01;;;;;;;36.28;27.38;;;;;;;;;;5006357;28;20050;-62
2021/12/12 07:14:27;;;;;;;35.35;25.38;;;;;;;;;;5021528;28;20061;-62
2021/12/12 07:16:56;;;;;;;34.47;24.48;;;;;;;;;;5005447;28;20042;-63
2021/12/12 07:19:22;;;;;;;32.45;23.42;;;;;;;;;;5005230;28;20041;-62
2021/12/12 07:21:48;;;;;;;33.38;25.13;;;;;;;;;;4989754;28;20607;-62
2021/12/12 07:24:15;;;;;;;35.80;26.23;;;;;;;;;;5008140;28;20129;-61
2021/12/12 07:26:41;;;;;;;34.67;25.42;;;;;;;;;;5008622;28;20338;-62
2021/12/12 07:29:07;;;;;;;41.65;28.63;;;;;;;;;;5007949;28;20041;-62
2021/12/12 07:31:35;;;;;;;37.22;25.15;;;;;;;;;;5006043;28;20038;-61
2021/12/12 07:34:03;;;;;;;43.80;30.30;;;;;;;;;;5007653;28;20049;-61
2021/12/12 07:36:32;;;;;;;38.40;27.05;;;;;;;;;;4989254;28;20041;-62
2021/12/12 07:39:00;;;;;;;40.67;25.73;;;;;;;;;;5005556;28;20065;-62
2021/12/12 07:41:28;;;;;;;45.72;30.63;;;;;;;;;;5004582;28;20044;-62
2021/12/12 07:43:55;;;;;;;43.78;29.25;;;;;;;;;;5005129;28;20044;-62
2021/12/12 07:46:21;;;;;;;38.53;27.38;;;;;;;;;;4988682;28;20111;-63
2021/12/12 07:48:49;;;;;;;35.35;24.75;;;;;;;;;;5005214;28;20076;-63
2021/12/12 07:51:15;;;;;;;44.33;30.00;;;;;;;;;;5004931;28;20099;-62
2021/12/12 07:53:41;;;;;;;44.40;30.42;;;;;;;;;;5006250;28;20518;-63
2021/12/12 07:56:08;;;;;;;44.00;29.08;;;;;;;;;;5004845;28;20041;-62
2021/12/12 07:58:35;;;;;;;46.13;31.80;;;;;;;;;;4988584;28;20045;-61
2021/12/12 08:01:02;;;;;;;51.47;31.30;;;;;;;;;;5006822;28;20037;-62
2021/12/12 08:03:30;;;;;;;51.45;32.58;;;;;;;;;;4998294;28;20054;-61
2021/12/12 08:05:59;;;;;;;54.83;32.90;;;;;;;;;;5008048;28;20589;-61
2021/12/12 08:08:27;;;;;;;45.97;29.20;;;;;;;;;;5008633;28;20048;-61
2021/12/12 08:10:53;;;;;;;57.95;34.17;;;;;;;;;;5009358;28;20053;-61
2021/12/12 08:13:20;;;;;;;49.53;30.90;;;;;;;;;;5008282;28;20045;-61
2021/12/12 08:15:46;;;;;;;55.33;33.35;;;;;;;;;;5009183;28;20524;-62
2021/12/12 08:18:14;;;;;;;50.85;31.00;;;;;;;;;;5009507;28;20563;-61
2021/12/12 08:20:44;;;;;;;70.43;36.67;;;;;;;;;;5008353;28;20057;-61
2021/12/12 08:23:10;;;;;;;54.22;31.70;;;;;;;;;;5006617;28;20053;-61
2021/12/12 08:25:37;;;;;;;52.20;31.52;;;;;;;;;;5007629;28;20041;-61
2021/12/12 08:28:04;;;;;;;52.65;31.27;;;;;;;;;;5007061;28;20129;-61
2021/12/12 08:30:31;;;;;;;56.83;33.30;;;;;;;;;;5005315;28;20040;-62
2021/12/12 08:32:57;;;;;;;61.10;34.92;;;;;;;;;;5019513;28;20050;-62
2021/12/12 08:35:25;;;;;;;47.40;28.67;;;;;;;;;;5004641;28;20583;-60
2021/12/12 08:37:52;;;;;;;57.00;34.10;;;;;;;;;;5006137;28;20076;-61
2021/12/12 08:40:21;;;;;;;55.28;33.75;;;;;;;;;;5008006;28;20042;-62
2021/12/12 08:42:47;;;;;;;52.20;31.67;;;;;;;;;;5005882;28;20073;-63
2021/12/12 08:45:15;;;;;;;50.92;29.38;;;;;;;;;;5007111;28;20049;-63
2021/12/12 08:47:41;;;;;;;54.42;29.92;;;;;;;;;;5005944;28;20045;-63
2021/12/12 08:50:09;;;;;;;51.85;31.85;;;;;;;;;;5006231;28;20042;-63
2021/12/12 08:52:39;;;;;;;58.28;31.83;;;;;;;;;;5005958;28;20568;-62
2021/12/12 08:55:16;;;;;;;59.40;32.72;;;;;;;;;;5006925;28;20046;-63
2021/12/12 08:58:05;;;;;;;50.88;29.23;;;;;;;;;;5004774;28;20042;-62
2021/12/12 09:00:34;;;;;;;60.80;33.72;;;;;;;;;;5005659;28;20172;-62
2021/12/12 09:03:00;;;;;;;63.60;33.92;;;;;;;;;;5005929;28;20046;-62
2021/12/12 09:05:28;;;;;;;60.78;33.28;;;;;;;;;;5006602;28;20497;-61
2021/12/12 09:07:57;;;;;;;63.33;33.53;;;;;;;;;;5008933;28;20427;-61
2021/12/12 09:10:34;;;;;;;75.50;37.25;;;;;;;;;;5010009;28;20054;-61
2021/12/12 09:13:08;;;;;;;66.65;34.45;;;;;;;;;;5010795;28;20041;-61
2021/12/12 09:15:37;;;;;;;67.85;35.85;;;;;;;;;;4992903;28;20100;-61
2021/12/12 09:18:08;;;;;;;66.72;35.08;;;;;;;;;;5011765;28;20081;-61
2021/12/12 09:20:46;;;;;;;67.40;35.03;;;;;;;;;;5011834;28;20089;-61
2021/12/12 09:23:15;;;;;;;62.20;32.60;;;;;;;;;;5009346;28;20116;-61
2021/12/12 09:25:50;;;;;;;67.22;36.30;;;;;;;;;;5008691;28;20443;-61
2021/12/12 09:28:22;;;;;;;47.15;24.17;;;;;;;;;;5006390;28;20042;-61
2021/12/12 09:30:49;;;;;;;69.90;34.80;;;;;;;;;;5008266;28;20053;-61
2021/12/12 09:33:19;;;;;;;67.88;34.65;;;;;;;;;;5009855;28;20045;-60
2021/12/12 09:35:48;;;;;;;70.88;35.88;;;;;;;;;;5006994;28;20091;-61
2021/12/12 09:38:22;;;;;;;92.80;40.20;;;;;;;;;;5008634;28;20392;-63
2021/12/12 09:41:08;;;;;;;69.72;32.25;;;;;;;;;;5008858;28;20076;-62
2021/12/12 09:43:34;;;;;;;72.88;36.15;;;;;;;;;;5008375;28;20050;-62
2021/12/12 09:46:00;;;;;;;105.35;42.72;;;;;;;;;;5007865;28;20073;-62
2021/12/12 09:51:50;;;;;;;83.03;37.55;;;;;;;;;;5023130;28;20060;-63
2021/12/12 09:54:24;;;;;;;75.05;33.97;;;;;;;;;;5007655;28;20042;-62
2021/12/12 09:56:56;;;;;;;75.40;32.70;;;;;;;;;;5023100;28;20194;-62
2021/12/12 09:59:40;;;;;;;93.28;40.97;;;;;;;;;;5007088;28;20069;-61
2021/12/12 10:02:17;;;;;;;92.43;35.85;;;;;;;;;;5007722;28;20069;-62
2021/12/12 10:05:04;;;;;;;96.28;38.78;;;;;;;;;;5007579;28;20054;-62
2021/12/12 10:07:49;;;;;;;94.30;39.53;;;;;;;;;;5007248;28;20507;-61
2021/12/12 10:10:20;;;;;;;116.70;44.05;;;;;;;;;;5007389;28;20050;-62
2021/12/12 10:12:52;;;;;;;95.68;39.58;;;;;;;;;;5006827;28;20443;-62
2021/12/12 10:15:23;;;;;;;96.30;38.80;;;;;;;;;;5004605;28;20037;-62
2021/12/12 10:17:49;;;;;;;118.25;44.50;;;;;;;;;;5009353;28;20128;-61
2021/12/12 10:20:25;;;;;;;92.82;33.83;;;;;;;;;;5007816;28;20033;-60
2021/12/12 10:23:00;;;;;;;127.35;43.45;;;;;;;;;;5008313;28;20034;-61
2021/12/12 10:25:50;;;;;;;126.40;44.35;;;;;;;;;;5008036;28;20044;-61
2021/12/12 10:28:22;;;;;;;126.22;44.92;;;;;;;;;;5017386;28;20447;-61
2021/12/12 10:31:03;;;;;;;153.45;49.65;;;;;;;;;;5008502;28;20104;-62
2021/12/12 10:33:36;;;;;;;139.80;48.03;;;;;;;;;;5009817;28;20040;-61
2021/12/12 10:36:05;;;;;;;106.87;36.13;;;;;;;;;;5025899;28;20459;-61
2021/12/12 10:38:46;;;;;;;122.63;41.05;;;;;;;;;;5008785;28;20790;-62
2021/12/12 10:41:23;;;;;;;154.30;48.97;;;;;;;;;;5009449;28;20056;-63
2021/12/12 10:43:53;;;;;;;135.82;44.58;;;;;;;;;;5017966;28;20044;-62
2021/12/12 10:46:22;;;;;;;131.43;42.72;;;;;;;;;;5008595;28;20048;-61
2021/12/12 10:49:03;;;;;;;142.68;46.55;;;;;;;;;;5012335;28;20042;-62
2021/12/12 10:51:32;;;;;;;146.55;49.60;;;;;;;;;;5003668;28;20052;-62
2021/12/12 10:54:13;;;;;;;176.88;51.13;;;;;;;;;;4989507;28;20050;-62
2021/12/12 10:56:41;;;;;;;193.35;53.90;;;;;;;;;;5005247;28;20507;-63
2021/12/12 10:59:18;;;;;;;183.32;53.53;;;;;;;;;;5006420;28;20084;-63
2021/12/12 11:01:45;;;;;;;145.43;45.95;;;;;;;;;;4988831;28;20396;-63
2021/12/12 11:04:15;;;;;;;174.25;52.63;;;;;;;;;;5007040;28;20557;-64
2021/12/12 11:06:59;;;;;;;159.48;51.55;;;;;;;;;;5021923;28;20084;-63
2021/12/12 11:09:34;;;;;;;175.98;49.67;;;;;;;;;;4992463;28;20037;-63
2021/12/12 11:12:09;;;;;;;170.63;51.28;;;;;;;;;;5005688;28;20535;-63
2021/12/12 11:14:46;;;;;;;144.02;49.60;;;;;;;;;;4989995;28;20054;-62
2021/12/12 11:17:17;;;;;;;185.32;53.38;;;;;;;;;;5010800;28;20580;-63
2021/12/12 11:19:55;;;;;;;192.48;55.10;;;;;;;;;;4989622;28;20423;-64
2021/12/12 11:22:27;;;;;;;159.05;50.95;;;;;;;;;;4989271;28;20073;-62
2021/12/12 11:24:58;;;;;;;184.13;52.33;;;;;;;;;;5005700;28;20096;-63
2021/12/12 11:27:33;;;;;;;203.73;55.50;;;;;;;;;;5006514;28;20504;-62
2021/12/12 11:30:07;;;;;;;185.50;53.10;;;;;;;;;;5008847;28;20108;-62
2021/12/12 11:32:35;;;;;;;161.98;48.95;;;;;;;;;;5007318;28;20820;-62
2021/12/12 11:35:02;;;;;;;232.75;60.42;;;;;;;;;;5006258;28;20439;-63
2021/12/12 11:37:48;;;;;;;179.70;53.95;;;;;;;;;;5006948;28;20048;-62
2021/12/12 11:40:21;;;;;;;188.20;56.38;;;;;;;;;;5004156;28;20305;-63
2021/12/12 11:42:57;;;;;;;188.27;55.83;;;;;;;;;;5006259;28;20038;-63
2021/12/12 11:45:26;;;;;;;194.98;55.95;;;;;;;;;;5004990;28;20736;-62
2021/12/12 11:48:15;;;;;;;189.35;54.50;;;;;;;;;;5005760;28;20042;-63
2021/12/12 11:50:46;;;;;;;205.20;56.38;;;;;;;;;;5004898;28;20038;-63
2021/12/12 11:53:19;;;;;;;156.43;49.70;;;;;;;;;;5006614;28;20057;-64
2021/12/12 11:55:49;;;;;;;140.88;51.42;;;;;;;;;;5003907;28;20117;-63
2021/12/12 11:58:25;;;;;;;168.57;52.30;;;;;;;;;;5005603;28;20057;-64
2021/12/12 12:01:02;;;;;;;126.78;44.72;;;;;;;;;;5021209;28;20511;-63
2021/12/12 12:03:47;;;;;;;143.45;49.60;;;;;;;;;;5020444;28;20622;-63
2021/12/12 12:06:21;;;;;;;133.57;47.22;;;;;;;;;;5019377;28;20046;-62
2021/12/12 12:09:05;;;;;;;141.18;47.60;;;;;;;;;;4997346;28;21260;-63
2021/12/12 12:11:47;;;;;;;125.20;45.00;;;;;;;;;;5004126;28;20373;-62
2021/12/12 12:14:23;;;;;;;121.32;44.40;;;;;;;;;;5006281;28;20034;-62
2021/12/12 12:16:49;;;;;;;122.05;44.40;;;;;;;;;;4988425;28;20129;-63
2021/12/12 12:19:18;;;;;;;138.20;47.75;;;;;;;;;;5005616;28;20547;-61
2021/12/12 12:21:53;;;;;;;131.30;46.78;;;;;;;;;;5004923;28;20095;-61
2021/12/12 12:24:22;;;;;;;113.50;44.10;;;;;;;;;;5005334;28;20033;-62
2021/12/12 12:27:03;;;;;;;117.45;45.22;;;;;;;;;;5020979;28;20042;-62
2021/12/12 12:29:33;;;;;;;114.88;42.50;;;;;;;;;;5011919;28;20030;-62
2021/12/12 12:32:05;;;;;;;142.82;47.42;;;;;;;;;;5006884;28;20360;-62
2021/12/12 12:34:37;;;;;;;115.28;41.95;;;;;;;;;;5007204;28;20038;-62
2021/12/12 12:37:22;;;;;;;102.80;42.00;;;;;;;;;;5005061;28;20045;-63
2021/12/12 12:40:20;;;;;;;121.38;45.05;;;;;;;;;;5004620;28;20068;-63
2021/12/12 12:43:05;;;;;;;117.88;44.20;;;;;;;;;;5009093;28;20072;-61
2021/12/12 12:45:50;;;;;;;109.38;43.40;;;;;;;;;;5009491;28;20399;-62
2021/12/12 12:48:34;;;;;;;101.65;38.50;;;;;;;;;;5024695;28;20042;-63
2021/12/12 12:51:20;;;;;;;99.22;41.22;;;;;;;;;;5011748;28;20042;-62
2021/12/12 12:53:49;;;;;;;128.43;45.35;;;;;;;;;;5027529;28;20053;-62
2021/12/12 12:56:34;;;;;;;121.13;43.35;;;;;;;;;;4996036;28;20048;-62
2021/12/12 12:59:10;;;;;;;129.23;45.63;;;;;;;;;;5009348;28;20500;-62
2021/12/12 13:01:36;;;;;;;129.23;47.35;;;;;;;;;;5024018;28;20052;-62
2021/12/12 13:04:02;;;;;;;112.97;44.28;;;;;;;;;;5013620;28;20041;-63
2021/12/12 13:06:47;;;;;;;114.63;43.28;;;;;;;;;;5025099;28;20056;-64
2021/12/12 13:09:39;;;;;;;129.07;44.88;;;;;;;;;;5024563;28;20054;-63
2021/12/12 13:12:05;;;;;;;110.57;42.92;;;;;;;;;;5006693;28;20141;-64
2021/12/12 13:14:34;;;;;;;95.30;38.28;;;;;;;;;;5009803;28;20127;-63
2021/12/12 13:17:11;;;;;;;90.80;38.15;;;;;;;;;;5009319;28;20121;-63
2021/12/12 13:19:56;;;;;;;136.48;46.15;;;;;;;;;;5009345;28;20065;-62
2021/12/12 13:22:31;;;;;;;98.22;39.50;;;;;;;;;;5009529;28;20132;-62
2021/12/12 13:24:58;;;;;;;94.45;37.55;;;;;;;;;;5024615;28;20041;-62
2021/12/12 13:27:33;;;;;;;77.40;36.92;;;;;;;;;;5007911;28;20049;-62
2021/12/12 13:30:06;;;;;;;92.70;38.38;;;;;;;;;;5009496;28;20081;-62
2021/12/12 13:32:38;;;;;;;81.93;36.33;;;;;;;;;;5008478;28;20089;-62
2021/12/12 13:35:21;;;;;;;76.25;33.42;;;;;;;;;;5009304;28;20331;-63
2021/12/12 13:37:56;;;;;;;92.80;36.55;;;;;;;;;;5007725;28;20026;-61
2021/12/12 13:40:28;;;;;;;84.43;34.95;;;;;;;;;;5007894;28;20050;-62
2021/12/12 13:43:09;;;;;;;89.45;36.20;;;;;;;;;;5009322;28;20037;-62
2021/12/12 13:45:39;;;;;;;100.70;36.67;;;;;;;;;;5007389;28;20472;-62
2021/12/12 13:48:14;;;;;;;99.60;39.83;;;;;;;;;;5005699;28;20048;-63
2021/12/12 13:50:50;;;;;;;98.50;38.50;;;;;;;;;;5007502;28;20050;-62
2021/12/12 13:53:36;;;;;;;96.35;37.70;;;;;;;;;;5004778;28;20467;-62
2021/12/12 13:56:02;;;;;;;102.22;38.03;;;;;;;;;;5007372;28;20117;-62
2021/12/12 13:58:51;;;;;;;91.32;37.53;;;;;;;;;;4992403;28;20409;-62
2021/12/12 14:01:20;;;;;;;100.15;38.35;;;;;;;;;;4984952;28;20060;-62
2021/12/12 14:03:53;;;;;;;97.72;37.55;;;;;;;;;;5006898;28;20076;-62
2021/12/12 14:06:21;;;;;;;116.28;39.63;;;;;;;;;;5008846;28;20053;-62
2021/12/12 14:08:50;;;;;;;102.60;36.15;;;;;;;;;;5023278;28;20050;-62
2021/12/12 14:11:26;;;;;;;145.85;44.90;;;;;;;;;;5010131;28;20368;-62
2021/12/12 14:13:55;;;;;;;108.75;39.17;;;;;;;;;;5010897;28;20121;-62
2021/12/12 14:16:26;;;;;;;99.82;36.67;;;;;;;;;;5009179;28;20104;-62
2021/12/12 14:19:07;;;;;;;82.68;32.25;;;;;;;;;;5009193;28;20046;-63
2021/12/12 14:21:33;;;;;;;94.90;36.80;;;;;;;;;;5009051;28;20419;-63
2021/12/12 14:24:00;;;;;;;116.70;39.28;;;;;;;;;;5010827;28;20053;-63
2021/12/12 14:26:34;;;;;;;106.38;37.90;;;;;;;;;;5009811;28;20038;-62
2021/12/12 14:29:02;;;;;;;108.30;37.45;;;;;;;;;;5027511;28;20084;-63
2021/12/12 14:31:30;;;;;;;127.70;40.85;;;;;;;;;;5009885;28;20068;-63
2021/12/12 14:33:59;;;;;;;97.68;36.63;;;;;;;;;;5009821;28;20045;-62
2021/12/12 14:36:26;;;;;;;133.90;41.45;;;;;;;;;;5019185;28;20033;-64
2021/12/12 14:38:53;;;;;;;117.03;39.53;;;;;;;;;;5011687;28;20041;-63
2021/12/12 14:41:37;;;;;;;110.03;38.45;;;;;;;;;;5010030;28;20038;-63
2021/12/12 14:44:09;;;;;;;116.43;39.35;;;;;;;;;;5009341;28;20609;-63
2021/12/12 14:46:39;;;;;;;107.67;37.50;;;;;;;;;;5009692;28;20038;-62
2021/12/12 14:49:14;;;;;;;103.15;38.58;;;;;;;;;;5008136;28;20292;-62
2021/12/12 14:52:00;;;;;;;97.75;36.63;;;;;;;;;;5009757;28;20045;-63